首页
METAR-TAF:

METAR-TAF

机场 :

Eagle, 阿拉斯加州, 美国

纬度: 64-46-35N, 经度: 141-09-03W, 海拔: 268米

当前天气观测

该预报发布于23小时和49分钟前的18:53 UTC
风速9节,风向西转西北
温度 -19°C
湿度 54%
气压 1023 hPa
能見度: 4.0公里
多云层高于3400英尺
阴天层高于4100英尺

METAR: PAEG 091853Z AUTO 30009KT 2 1/2SM HZ BKN034 OVC041 M19/M26 A3020 RMK AO2 SLP253 T11891256 TSNO

时间: 10:42 (18:42 UTC)


TAF: 丢失

超过4000个机场的气象观测和天气预报(METAR&TAF报告)。

可查询的气象台以黄色和红色小点在地图上表示。

将鼠标移到小点上方,可查看气象台名称。

然后点击查看天气观测和预报。

如需切换地图:点击带黑十字的绿色按钮放大地图;点击带横线的绿色按钮缩小地图;或者点击绿色箭头查看邻近地区的地图。


METAR-TAF: